Time;durP1;ratioP1;P1;durP2;ratioP2;P2;SDS_P1;SDS_P2;PMS_P1;PMS_P2;Temp;Humidity;BMP_temperature;BMP_pressure;BME280_temperature;BME280_humidity;BME280_pressure;Samples;Min_cycle;Max_cycle;Signal;HPM_P1;HPM_P2
2021/06/30 21:27:51;;;;;;;3.70;3.00;;;;;;;19.60;67.64;99746.98;96587;1168;81038;-61
2021/06/30 21:29:59;;;;;;;3.90;2.90;;;;;;;19.57;67.58;99748.34;92651;1221;68886;-61
2021/06/30 21:32:10;;;;;;;3.80;2.90;;;;;;;19.56;67.78;99752.16;92626;1225;68747;-60
2021/06/30 21:34:19;;;;;;;3.90;3.00;;;;;;;19.56;67.84;99759.58;92669;1219;85595;-61
2021/06/30 21:36:26;;;;;;;3.90;3.20;;;;;;;19.52;68.00;99759.27;92683;1225;75910;-61
2021/06/30 21:38:42;;;;;;;3.50;3.10;;;;;;;19.49;68.06;99758.96;92681;1219;81769;-59
2021/06/30 21:40:53;;;;;;;4.50;3.10;;;;;;;19.42;67.95;99765.48;92608;1219;66843;-61
2021/06/30 21:43:04;;;;;;;5.10;3.10;;;;;;;19.34;68.07;99757.72;92651;1219;69528;-68
2021/06/30 21:45:16;;;;;;;4.20;3.00;;;;;;;19.31;68.38;99760.98;92624;1219;86862;-68
2021/06/30 21:47:29;;;;;;;3.20;2.90;;;;;;;19.27;68.26;99764.52;92641;1219;73574;-63
2021/06/30 21:49:37;;;;;;;3.60;3.10;;;;;;;19.23;68.54;99769.67;92657;1219;81188;-65
2021/06/30 21:51:45;;;;;;;3.60;3.30;;;;;;;19.23;68.76;99777.06;92677;1214;65034;-65
2021/06/30 21:53:53;;;;;;;3.40;3.10;;;;;;;19.19;68.87;99781.42;92665;1219;68776;-65
2021/06/30 21:56:04;;;;;;;4.20;3.10;;;;;;;19.13;68.92;99790.67;92606;1219;87418;-67
2021/06/30 21:58:12;;;;;;;4.60;3.20;;;;;;;19.05;69.14;99793.88;92581;1219;76034;-69
2021/06/30 22:00:28;;;;;;;3.50;2.90;;;;;;;19.00;69.31;99802.88;92602;1219;80389;-68
2021/06/30 22:02:36;;;;;;;4.20;2.90;;;;;;;18.98;69.60;99796.81;92635;1214;67001;-68
2021/06/30 22:04:46;;;;;;;5.20;3.60;;;;;;;18.93;69.62;99795.94;92641;1224;70013;-68
2021/06/30 22:06:54;;;;;;;6.70;3.10;;;;;;;18.91;69.51;99800.85;92603;1225;86105;-64
2021/06/30 22:09:03;;;;;;;3.40;3.10;;;;;;;18.83;69.97;99804.89;92599;1213;74863;-67
2021/06/30 22:11:11;;;;;;;5.40;3.10;;;;;;;18.81;69.95;99802.42;92475;1224;82600;-67
2021/06/30 22:13:22;;;;;;;4.90;3.20;;;;;;;18.83;70.20;99804.89;92570;1219;68423;-69
2021/06/30 22:15:32;;;;;;;4.30;3.60;;;;;;;18.84;70.35;99809.29;92709;1209;68358;-68
2021/06/30 22:17:40;;;;;;;5.30;3.80;;;;;;;18.80;70.50;99810.88;92605;1219;86744;-62
2021/06/30 22:19:51;;;;;;;4.10;3.70;;;;;;;18.77;70.52;99814.95;92658;1220;76520;-62
2021/06/30 22:22:05;;;;;;;4.50;3.50;;;;;;;18.73;70.70;99826.68;92648;1219;82154;-62
2021/06/30 22:24:14;;;;;;;3.90;3.60;;;;;;;18.70;70.72;99821.72;92645;1219;69164;-63
2021/06/30 22:26:37;;;;;;;8.90;3.30;;;;;;;18.68;70.86;99829.33;92659;1219;67913;-65
2021/06/30 22:28:51;;;;;;;7.10;3.30;;;;;;;18.63;71.03;99832.84;92660;1219;86304;-64
2021/06/30 22:31:03;;;;;;;4.50;3.30;;;;;;;18.57;71.24;99835.80;92648;1219;74516;-68
2021/06/30 22:33:12;;;;;;;4.10;3.60;;;;;;;18.48;71.33;99834.58;92638;1219;81684;-65
2021/06/30 22:35:21;;;;;;;3.70;3.20;;;;;;;18.43;71.38;99835.28;92637;1219;68877;-66
2021/06/30 22:37:31;;;;;;;5.00;3.40;;;;;;;18.41;71.50;99833.89;92666;1225;69591;-64
2021/06/30 22:39:43;;;;;;;4.30;3.30;;;;;;;18.39;71.54;99842.36;92673;1225;86911;-64
2021/06/30 22:41:50;;;;;;;5.00;3.50;;;;;;;18.37;71.70;99850.00;92629;1220;74759;-65
2021/06/30 22:43:58;;;;;;;3.80;3.50;;;;;;;18.38;71.90;99840.70;92586;1219;81055;-63
2021/06/30 22:46:06;;;;;;;5.70;3.80;;;;;;;18.34;71.97;99844.20;92642;1219;67209;-58
2021/06/30 22:48:15;;;;;;;4.40;3.40;;;;;;;18.31;72.13;99841.97;92660;1210;69339;-65
2021/06/30 22:50:24;;;;;;;3.90;3.50;;;;;;;18.31;72.15;99850.17;92673;1209;87151;-65
2021/06/30 22:52:32;;;;;;;4.10;3.60;;;;;;;18.32;72.37;99840.91;92651;1219;73910;-57
2021/06/30 22:54:39;;;;;;;4.20;3.60;;;;;;;18.30;72.37;99841.14;92667;1209;82048;-57
2021/06/30 22:56:48;;;;;;;4.40;3.70;;;;;;;18.31;72.39;99834.59;92616;1224;66602;-63
2021/06/30 22:58:59;;;;;;;5.00;3.40;;;;;;;18.26;72.51;99834.53;92629;1219;70966;-67
2021/06/30 23:01:07;;;;;;;4.90;3.70;;;;;;;18.25;72.44;99835.61;92639;1219;87060;-66
2021/06/30 23:03:18;;;;;;;4.20;3.90;;;;;;;18.19;72.50;99834.70;92620;1219;74928;-65
2021/06/30 23:05:28;;;;;;;3.90;3.40;;;;;;;18.17;72.56;99834.14;92598;1219;81577;-67
2021/06/30 23:07:36;;;;;;;3.80;3.40;;;;;;;18.15;72.69;99830.01;92530;1219;68926;-57
2021/06/30 23:09:44;;;;;;;5.00;3.30;;;;;;;18.11;72.75;99832.41;92615;1219;69330;-58
2021/06/30 23:11:55;;;;;;;4.80;3.60;;;;;;;18.05;73.06;99829.84;92580;1225;87579;-58
2021/06/30 23:14:07;;;;;;;4.70;3.90;;;;;;;18.05;72.97;99827.95;92606;1219;75978;-65
2021/06/30 23:16:15;;;;;;;3.80;3.50;;;;;;;18.07;73.08;99822.23;92628;1219;81507;-65
2021/06/30 23:18:26;;;;;;;4.10;3.70;;;;;;;18.11;73.23;99832.41;92612;1219;68778;-66
2021/06/30 23:20:34;;;;;;;3.90;3.30;;;;;;;18.09;73.28;99833.74;92595;1219;68130;-66
2021/06/30 23:22:46;;;;;;;4.50;3.90;;;;;;;18.10;73.31;99828.01;92591;1219;86437;-59
2021/06/30 23:24:54;;;;;;;4.20;3.80;;;;;;;18.11;73.45;99831.58;92618;1219;75136;-58
2021/06/30 23:27:01;;;;;;;5.20;4.30;;;;;;;18.08;73.27;99823.88;92603;1219;82063;-57
2021/06/30 23:29:12;;;;;;;4.30;3.80;;;;;;;18.04;73.41;99820.01;92584;1221;68331;-66
2021/06/30 23:31:20;;;;;;;7.40;4.10;;;;;;;18.01;73.41;99818.61;92614;1219;69435;-65
2021/06/30 23:33:28;;;;;;;5.80;4.40;;;;;;;18.03;73.49;99815.61;92505;1214;86316;-65
2021/06/30 23:35:36;;;;;;;5.30;4.10;;;;;;;18.01;73.61;99809.58;92681;1209;74306;-67
2021/06/30 23:37:44;;;;;;;5.10;4.50;;;;;;;17.94;73.65;99817.11;92661;1219;81535;-65
2021/06/30 23:39:51;;;;;;;4.50;4.10;;;;;;;17.87;73.52;99811.84;92608;1219;69174;-64
2021/06/30 23:42:02;;;;;;;4.50;3.90;;;;;;;17.89;73.66;99809.67;92626;1219;69202;-65
2021/06/30 23:44:10;;;;;;;5.40;3.70;;;;;;;17.90;73.68;99805.88;92688;1219;86809;-64
2021/06/30 23:46:18;;;;;;;6.10;4.00;;;;;;;17.91;73.69;99801.24;92657;1224;74289;-64
2021/06/30 23:48:26;;;;;;;5.70;4.00;;;;;;;17.83;73.85;99794.28;92597;1219;82069;-56
2021/06/30 23:50:34;;;;;;;5.50;4.30;;;;;;;17.83;73.83;99798.91;92611;1225;66539;-58
2021/06/30 23:52:42;;;;;;;4.80;4.40;;;;;;;17.79;73.82;99792.31;92641;1219;68751;-57
2021/06/30 23:54:50;;;;;;;4.60;4.20;;;;;;;17.74;73.84;99792.23;92598;1219;86952;-55
2021/06/30 23:56:59;;;;;;;4.40;4.00;;;;;;;17.63;73.84;99794.00;92611;1219;75293;-57
2021/06/30 23:59:06;;;;;;;4.20;3.80;;;;;;;17.60;74.07;99799.95;92594;1219;82149;-57
